sensor_id;sensor_type;location;lat;lon;timestamp;pressure;altitude;pressure_sealevel;temperature;humidity
48015;BME280;33780;51.034;7.120;2023-06-22T00:01:14;100918.97;;;23.75;55.08
48015;BME280;33780;51.034;7.120;2023-06-22T00:03:39;100917.50;;;23.73;55.20
48015;BME280;33780;51.034;7.120;2023-06-22T00:06:04;100919.59;;;23.71;55.24
48015;BME280;33780;51.034;7.120;2023-06-22T00:08:30;100912.47;;;23.70;55.50
48015;BME280;33780;51.034;7.120;2023-06-22T00:10:58;100921.69;;;23.69;54.97
48015;BME280;33780;51.034;7.120;2023-06-22T00:13:30;100919.78;;;23.69;55.19
48015;BME280;33780;51.034;7.120;2023-06-22T00:15:56;100910.13;;;23.67;55.30
48015;BME280;33780;51.034;7.120;2023-06-22T00:18:23;100913.91;;;23.66;55.39
48015;BME280;33780;51.034;7.120;2023-06-22T00:20:54;100925.91;;;23.65;55.33
48015;BME280;33780;51.034;7.120;2023-06-22T00:23:22;100931.56;;;23.63;55.36
48015;BME280;33780;51.034;7.120;2023-06-22T00:25:49;100929.06;;;23.62;55.42
48015;BME280;33780;51.034;7.120;2023-06-22T00:28:14;100924.88;;;23.59;55.26
48015;BME280;33780;51.034;7.120;2023-06-22T00:30:39;100926.75;;;23.59;55.14
48015;BME280;33780;51.034;7.120;2023-06-22T00:33:05;100937.69;;;23.59;55.50
48015;BME280;33780;51.034;7.120;2023-06-22T00:35:32;100929.50;;;23.59;55.33
48015;BME280;33780;51.034;7.120;2023-06-22T00:37:59;100938.75;;;23.58;55.52
48015;BME280;33780;51.034;7.120;2023-06-22T00:40:29;100933.47;;;23.56;55.41
48015;BME280;33780;51.034;7.120;2023-06-22T00:42:55;100931.78;;;23.55;55.47
48015;BME280;33780;51.034;7.120;2023-06-22T00:45:22;100931.16;;;23.53;55.83
48015;BME280;33780;51.034;7.120;2023-06-22T00:47:50;100923.56;;;23.48;56.09
48015;BME280;33780;51.034;7.120;2023-06-22T00:50:18;100925.69;;;23.46;56.02
48015;BME280;33780;51.034;7.120;2023-06-22T00:52:48;100928.41;;;23.46;56.03
48015;BME280;33780;51.034;7.120;2023-06-22T00:55:13;100933.03;;;23.46;56.05
48015;BME280;33780;51.034;7.120;2023-06-22T00:57:39;100935.97;;;23.44;55.68
48015;BME280;33780;51.034;7.120;2023-06-22T01:00:09;100930.50;;;23.44;55.93
48015;BME280;33780;51.034;7.120;2023-06-22T01:02:36;100931.34;;;23.45;56.07
48015;BME280;33780;51.034;7.120;2023-06-22T01:05:04;100938.72;;;23.44;56.27
48015;BME280;33780;51.034;7.120;2023-06-22T01:10:19;100926.53;;;23.40;55.91
48015;BME280;33780;51.034;7.120;2023-06-22T01:12:52;100929.25;;;23.40;56.16
48015;BME280;33780;51.034;7.120;2023-06-22T01:15:28;100921.28;;;23.39;56.27
48015;BME280;33780;51.034;7.120;2023-06-22T01:17:56;100914.97;;;23.38;56.16
48015;BME280;33780;51.034;7.120;2023-06-22T01:20:23;100915.19;;;23.37;56.43
48015;BME280;33780;51.034;7.120;2023-06-22T01:25:45;100921.91;;;23.34;57.23
48015;BME280;33780;51.034;7.120;2023-06-22T01:28:32;100912.22;;;23.32;57.03
48015;BME280;33780;51.034;7.120;2023-06-22T01:30:59;100908.66;;;23.31;56.56
48015;BME280;33780;51.034;7.120;2023-06-22T01:33:37;100903.41;;;23.30;56.93
48015;BME280;33780;51.034;7.120;2023-06-22T01:36:03;100905.50;;;23.28;56.61
48015;BME280;33780;51.034;7.120;2023-06-22T01:38:30;100900.06;;;23.28;56.37
48015;BME280;33780;51.034;7.120;2023-06-22T01:40:57;100901.94;;;23.27;56.75
48015;BME280;33780;51.034;7.120;2023-06-22T01:43:24;100888.50;;;23.26;56.86
48015;BME280;33780;51.034;7.120;2023-06-22T01:45:50;100884.09;;;23.25;56.79
48015;BME280;33780;51.034;7.120;2023-06-22T01:48:16;100885.16;;;23.24;57.10
48015;BME280;33780;51.034;7.120;2023-06-22T01:50:42;100881.78;;;23.21;56.94
48015;BME280;33780;51.034;7.120;2023-06-22T01:53:08;100876.75;;;23.18;57.17
48015;BME280;33780;51.034;7.120;2023-06-22T01:55:33;100880.53;;;23.17;56.84
48015;BME280;33780;51.034;7.120;2023-06-22T01:57:58;100886.19;;;23.16;57.08
48015;BME280;33780;51.034;7.120;2023-06-22T02:00:25;100873.56;;;23.15;57.04
48015;BME280;33780;51.034;7.120;2023-06-22T02:03:02;100878.19;;;23.14;57.25
48015;BME280;33780;51.034;7.120;2023-06-22T02:05:34;100875.91;;;23.11;57.18
48015;BME280;33780;51.034;7.120;2023-06-22T02:08:10;100876.94;;;23.10;56.88
48015;BME280;33780;51.034;7.120;2023-06-22T02:10:38;100879.88;;;23.09;56.89
48015;BME280;33780;51.034;7.120;2023-06-22T02:13:07;100882.63;;;23.09;56.68
48015;BME280;33780;51.034;7.120;2023-06-22T02:15:33;100880.09;;;23.07;56.56
48015;BME280;33780;51.034;7.120;2023-06-22T02:18:01;100879.47;;;23.05;56.83
48015;BME280;33780;51.034;7.120;2023-06-22T02:20:27;100876.75;;;23.05;56.86
48015;BME280;33780;51.034;7.120;2023-06-22T02:22:55;100878.84;;;23.03;56.62
48015;BME280;33780;51.034;7.120;2023-06-22T02:25:20;100871.72;;;23.02;56.82
48015;BME280;33780;51.034;7.120;2023-06-22T02:27:46;100871.91;;;23.01;56.93
48015;BME280;33780;51.034;7.120;2023-06-22T02:30:12;100863.09;;;22.99;56.46
48015;BME280;33780;51.034;7.120;2023-06-22T02:32:38;100875.25;;;22.96;56.85
48015;BME280;33780;51.034;7.120;2023-06-22T02:35:08;100871.69;;;22.96;56.99
48015;BME280;33780;51.034;7.120;2023-06-22T02:37:35;100871.91;;;22.94;56.88
48015;BME280;33780;51.034;7.120;2023-06-22T02:40:01;100863.91;;;22.92;56.66
48015;BME280;33780;51.034;7.120;2023-06-22T02:42:28;100868.53;;;22.92;56.93
48015;BME280;33780;51.034;7.120;2023-06-22T02:44:53;100862.44;;;22.90;56.87
48015;BME280;33780;51.034;7.120;2023-06-22T02:47:18;100863.72;;;22.87;56.78
48015;BME280;33780;51.034;7.120;2023-06-22T02:49:44;100857.63;;;22.85;56.78
48015;BME280;33780;51.034;7.120;2023-06-22T02:52:10;100860.34;;;22.85;57.06
48015;BME280;33780;51.034;7.120;2023-06-22T02:54:39;100859.53;;;22.85;56.98
48015;BME280;33780;51.034;7.120;2023-06-22T02:57:04;100850.69;;;22.83;56.80
48015;BME280;33780;51.034;7.120;2023-06-22T02:59:30;100846.28;;;22.82;56.83
48015;BME280;33780;51.034;7.120;2023-06-22T03:01:55;100848.34;;;22.80;56.65
48015;BME280;33780;51.034;7.120;2023-06-22T03:04:21;100841.41;;;22.77;56.84
48015;BME280;33780;51.034;7.120;2023-06-22T03:06:46;100834.28;;;22.76;56.94
48015;BME280;33780;51.034;7.120;2023-06-22T03:09:16;100827.97;;;22.76;56.90
48015;BME280;33780;51.034;7.120;2023-06-22T03:11:41;100833.66;;;22.74;56.59
48015;BME280;33780;51.034;7.120;2023-06-22T03:14:06;100831.13;;;22.73;56.71
48015;BME280;33780;51.034;7.120;2023-06-22T03:16:32;100837.22;;;22.75;56.78
48015;BME280;33780;51.034;7.120;2023-06-22T03:18:58;100835.53;;;22.74;56.96
48015;BME280;33780;51.034;7.120;2023-06-22T03:21:25;100835.53;;;22.74;57.07
48015;BME280;33780;51.034;7.120;2023-06-22T03:23:50;100833.22;;;22.71;56.65
48015;BME280;33780;51.034;7.120;2023-06-22T03:26:18;100834.28;;;22.70;56.78
48015;BME280;33780;51.034;7.120;2023-06-22T03:28:44;100837.00;;;22.70;56.98
48015;BME280;33780;51.034;7.120;2023-06-22T03:31:12;100832.81;;;22.67;56.99
48015;BME280;33780;51.034;7.120;2023-06-22T03:33:40;100830.28;;;22.66;57.01
48015;BME280;33780;51.034;7.120;2023-06-22T03:36:05;100835.97;;;22.64;57.34
48015;BME280;33780;51.034;7.120;2023-06-22T03:38:34;100837.19;;;22.61;57.21
48015;BME280;33780;51.034;7.120;2023-06-22T03:41:00;100830.06;;;22.60;57.55
48015;BME280;33780;51.034;7.120;2023-06-22T03:43:27;100831.94;;;22.60;57.70
48015;BME280;33780;51.034;7.120;2023-06-22T03:45:53;100830.25;;;22.59;57.51
48015;BME280;33780;51.034;7.120;2023-06-22T03:48:18;100822.91;;;22.59;57.52
48015;BME280;33780;51.034;7.120;2023-06-22T03:50:43;100824.59;;;22.60;57.62
48015;BME280;33780;51.034;7.120;2023-06-22T03:53:09;100824.59;;;22.60;57.87
48015;BME280;33780;51.034;7.120;2023-06-22T03:55:35;100831.09;;;22.59;57.81
48015;BME280;33780;51.034;7.120;2023-06-22T03:58:01;100825.66;;;22.59;57.91
48015;BME280;33780;51.034;7.120;2023-06-22T04:00:30;100824.81;;;22.59;57.84
48015;BME280;33780;51.034;7.120;2023-06-22T04:02:55;100817.47;;;22.59;57.89
48015;BME280;33780;51.034;7.120;2023-06-22T04:05:21;100822.72;;;22.61;57.87
48015;BME280;33780;51.034;7.120;2023-06-22T04:07:46;100827.31;;;22.60;57.85
48015;BME280;33780;51.034;7.120;2023-06-22T04:10:11;100823.75;;;22.60;58.08
48015;BME280;33780;51.034;7.120;2023-06-22T04:12:36;100819.13;;;22.60;57.90
48015;BME280;33780;51.034;7.120;2023-06-22T04:15:02;100817.47;;;22.59;57.96
48015;BME280;33780;51.034;7.120;2023-06-22T04:17:27;100816.41;;;22.60;58.04
48015;BME280;33780;51.034;7.120;2023-06-22T04:19:53;100814.72;;;22.59;58.01
48015;BME280;33780;51.034;7.120;2023-06-22T04:22:18;100831.53;;;22.56;58.00
48015;BME280;33780;51.034;7.120;2023-06-22T04:24:44;100826.91;;;22.57;57.91
48015;BME280;33780;51.034;7.120;2023-06-22T04:27:09;100820.41;;;22.58;58.13
48015;BME280;33780;51.034;7.120;2023-06-22T04:29:35;100824.81;;;22.59;58.01
48015;BME280;33780;51.034;7.120;2023-06-22T04:32:00;100821.03;;;22.60;58.33
48015;BME280;33780;51.034;7.120;2023-06-22T04:34:30;100817.47;;;22.59;58.07
48015;BME280;33780;51.034;7.120;2023-06-22T04:36:55;100820.19;;;22.59;58.61
48015;BME280;33780;51.034;7.120;2023-06-22T04:39:21;100810.97;;;22.60;58.31
48015;BME280;33780;51.034;7.120;2023-06-22T04:41:46;100820.81;;;22.61;58.39
48015;BME280;33780;51.034;7.120;2023-06-22T04:44:18;100816.41;;;22.60;58.53
48015;BME280;33780;51.034;7.120;2023-06-22T04:46:51;100816.19;;;22.62;58.59
48015;BME280;33780;51.034;7.120;2023-06-22T04:49:19;100812.63;;;22.61;58.22
48015;BME280;33780;51.034;7.120;2023-06-22T04:51:45;100812.47;;;22.63;58.76
48015;BME280;33780;51.034;7.120;2023-06-22T04:54:10;100807.00;;;22.63;58.68
48015;BME280;33780;51.034;7.120;2023-06-22T04:59:44;100818.31;;;22.67;58.60
48015;BME280;33780;51.034;7.120;2023-06-22T05:02:10;100812.66;;;22.68;58.88
48015;BME280;33780;51.034;7.120;2023-06-22T05:04:35;100817.06;;;22.69;58.74
48015;BME280;33780;51.034;7.120;2023-06-22T05:07:08;100814.97;;;22.71;58.95
48015;BME280;33780;51.034;7.120;2023-06-22T05:09:36;100811.81;;;22.74;59.02
48015;BME280;33780;51.034;7.120;2023-06-22T05:12:02;100818.94;;;22.75;58.90
48015;BME280;33780;51.034;7.120;2023-06-22T05:14:29;100814.97;;;22.78;59.24
48015;BME280;33780;51.034;7.120;2023-06-22T05:16:55;100813.06;;;22.78;59.55
48015;BME280;33780;51.034;7.120;2023-06-22T05:19:23;100809.50;;;22.78;60.16
48015;BME280;33780;51.034;7.120;2023-06-22T05:21:49;100802.38;;;22.77;60.26
48015;BME280;33780;51.034;7.120;2023-06-22T05:24:27;100805.31;;;22.75;60.63
48015;BME280;33780;51.034;7.120;2023-06-22T05:26:55;100806.97;;;22.76;60.60
48015;BME280;33780;51.034;7.120;2023-06-22T05:29:26;100803.41;;;22.76;60.95
48015;BME280;33780;51.034;7.120;2023-06-22T05:32:05;100805.53;;;22.74;61.38
48015;BME280;33780;51.034;7.120;2023-06-22T05:34:31;100810.97;;;22.74;61.39
48015;BME280;33780;51.034;7.120;2023-06-22T05:37:00;100809.09;;;22.74;61.45
48015;BME280;33780;51.034;7.120;2023-06-22T05:39:28;100817.28;;;22.74;61.77
48015;BME280;33780;51.034;7.120;2023-06-22T05:42:00;100817.47;;;22.73;62.23
48015;BME280;33780;51.034;7.120;2023-06-22T05:44:44;100810.34;;;22.72;62.26
48015;BME280;33780;51.034;7.120;2023-06-22T05:47:16;100815.59;;;22.73;62.55
48015;BME280;33780;51.034;7.120;2023-06-22T05:49:58;100820.00;;;22.74;62.69
48015;BME280;33780;51.034;7.120;2023-06-22T05:52:26;100823.56;;;22.75;62.64
48015;BME280;33780;51.034;7.120;2023-06-22T05:55:07;100827.97;;;22.76;62.83
48015;BME280;33780;51.034;7.120;2023-06-22T05:57:35;100826.09;;;22.76;63.05
48015;BME280;33780;51.034;7.120;2023-06-22T06:00:20;100823.34;;;22.76;63.00
48015;BME280;33780;51.034;7.120;2023-06-22T06:06:33;100836.78;;;22.78;63.06
48015;BME280;33780;51.034;7.120;2023-06-22T06:19:22;100841.03;;;22.94;63.19
48015;BME280;33780;51.034;7.120;2023-06-22T06:25:13;100836.63;;;23.06;63.90
48015;BME280;33780;51.034;7.120;2023-06-22T06:27:46;100830.94;;;23.14;63.48
48015;BME280;33780;51.034;7.120;2023-06-22T06:30:30;100835.59;;;23.20;63.70
48015;BME280;33780;51.034;7.120;2023-06-22T06:33:06;100840.81;;;23.28;65.11
48015;BME280;33780;51.034;7.120;2023-06-22T06:35:50;100837.25;;;23.34;63.93
48015;BME280;33780;51.034;7.120;2023-06-22T06:39:00;100848.34;;;23.46;63.33
48015;BME280;33780;51.034;7.120;2023-06-22T06:41:31;100839.09;;;23.54;63.23
48015;BME280;33780;51.034;7.120;2023-06-22T06:44:25;100840.56;;;23.63;62.92
48015;BME280;33780;51.034;7.120;2023-06-22T06:46:55;100830.66;;;23.68;62.70
48015;BME280;33780;51.034;7.120;2023-06-22T06:49:26;100839.03;;;23.80;62.91
48015;BME280;33780;51.034;7.120;2023-06-22T06:52:05;100831.63;;;23.94;62.67
48015;BME280;33780;51.034;7.120;2023-06-22T06:54:45;100829.03;;;24.05;62.59
48015;BME280;33780;51.034;7.120;2023-06-22T06:57:14;100831.31;;;24.15;62.89
48015;BME280;33780;51.034;7.120;2023-06-22T06:59:53;100821.81;;;24.24;61.98
48015;BME280;33780;51.034;7.120;2023-06-22T07:02:34;100818.84;;;24.32;61.71
48015;BME280;33780;51.034;7.120;2023-06-22T07:05:02;100816.91;;;24.39;61.57
48015;BME280;33780;51.034;7.120;2023-06-22T07:07:37;100819.38;;;24.48;61.55
48015;BME280;33780;51.034;7.120;2023-06-22T07:10:14;100812.81;;;24.55;61.54
48015;BME280;33780;51.034;7.120;2023-06-22T07:12:40;100808.56;;;24.59;61.26
48015;BME280;33780;51.034;7.120;2023-06-22T07:15:08;100802.66;;;24.62;60.77
48015;BME280;33780;51.034;7.120;2023-06-22T07:17:38;100797.56;;;24.66;61.01
48015;BME280;33780;51.034;7.120;2023-06-22T07:20:06;100789.53;;;24.71;60.93
48015;BME280;33780;51.034;7.120;2023-06-22T07:22:47;100790.34;;;24.78;60.87
48015;BME280;33780;51.034;7.120;2023-06-22T07:25:19;100791.34;;;24.84;60.66
48015;BME280;33780;51.034;7.120;2023-06-22T07:27:58;100782.22;;;24.90;60.23
48015;BME280;33780;51.034;7.120;2023-06-22T07:30:33;100782.38;;;24.95;60.32
48015;BME280;33780;51.034;7.120;2023-06-22T07:33:18;100779.84;;;25.00;60.45
48015;BME280;33780;51.034;7.120;2023-06-22T07:35:45;100788.44;;;25.04;59.98
48015;BME280;33780;51.034;7.120;2023-06-22T07:38:12;100788.22;;;25.05;60.03
48015;BME280;33780;51.034;7.120;2023-06-22T07:41:06;100791.56;;;25.07;60.28
48015;BME280;33780;51.034;7.120;2023-06-22T07:43:43;100785.63;;;25.10;60.02
48015;BME280;33780;51.034;7.120;2023-06-22T07:46:15;100779.91;;;25.12;59.46
48015;BME280;33780;51.034;7.120;2023-06-22T07:48:40;100764.13;;;25.14;59.46
48015;BME280;33780;51.034;7.120;2023-06-22T07:51:07;100769.59;;;25.14;59.40
48015;BME280;33780;51.034;7.120;2023-06-22T07:53:50;100771.28;;;25.15;59.57
48015;BME280;33780;51.034;7.120;2023-06-22T07:56:17;100758.66;;;25.14;60.05
48015;BME280;33780;51.034;7.120;2023-06-22T07:58:56;100760.31;;;25.15;59.73
48015;BME280;33780;51.034;7.120;2023-06-22T08:01:26;100750.59;;;25.19;59.61
48015;BME280;33780;51.034;7.120;2023-06-22T08:06:49;100732.63;;;25.23;59.59
48015;BME280;33780;51.034;7.120;2023-06-22T08:09:15;100724.16;;;25.24;59.39
48015;BME280;33780;51.034;7.120;2023-06-22T08:11:43;100733.00;;;25.26;60.40
48015;BME280;33780;51.034;7.120;2023-06-22T08:14:08;100726.81;;;25.31;59.70
48015;BME280;33780;51.034;7.120;2023-06-22T08:16:34;100722.34;;;25.37;60.02
48015;BME280;33780;51.034;7.120;2023-06-22T08:18:59;100720.59;;;25.42;60.14
48015;BME280;33780;51.034;7.120;2023-06-22T08:21:24;100719.28;;;25.45;59.68
48015;BME280;33780;51.034;7.120;2023-06-22T08:23:50;100715.00;;;25.49;59.99
48015;BME280;33780;51.034;7.120;2023-06-22T08:26:18;100706.13;;;25.53;60.24
48015;BME280;33780;51.034;7.120;2023-06-22T08:28:43;100714.50;;;25.58;59.98
48015;BME280;33780;51.034;7.120;2023-06-22T08:34:10;100692.66;;;25.70;59.71
48015;BME280;33780;51.034;7.120;2023-06-22T08:36:35;100691.72;;;25.76;59.40
48015;BME280;33780;51.034;7.120;2023-06-22T08:39:03;100681.94;;;25.80;59.26
48015;BME280;33780;51.034;7.120;2023-06-22T08:41:29;100680.41;;;25.84;58.88
48015;BME280;33780;51.034;7.120;2023-06-22T08:43:54;100686.06;;;25.89;58.77
48015;BME280;33780;51.034;7.120;2023-06-22T08:46:20;100680.94;;;25.93;58.70
48015;BME280;33780;51.034;7.120;2023-06-22T08:48:51;100680.00;;;25.99;58.67
48015;BME280;33780;51.034;7.120;2023-06-22T08:51:17;100693.38;;;26.07;58.41
48015;BME280;33780;51.034;7.120;2023-06-22T08:53:45;100678.13;;;26.11;57.70
48015;BME280;33780;51.034;7.120;2023-06-22T08:56:18;100681.00;;;26.16;58.34
48015;BME280;33780;51.034;7.120;2023-06-22T08:58:44;100669.28;;;26.21;58.02
48015;BME280;33780;51.034;7.120;2023-06-22T09:01:09;100660.97;;;26.28;57.76
48015;BME280;33780;51.034;7.120;2023-06-22T09:03:34;100656.31;;;26.28;57.78
48015;BME280;33780;51.034;7.120;2023-06-22T09:06:01;100653.09;;;26.31;57.11
48015;BME280;33780;51.034;7.120;2023-06-22T09:08:26;100660.03;;;26.34;57.77
48015;BME280;33780;51.034;7.120;2023-06-22T09:10:52;100654.09;;;26.37;57.63
48015;BME280;33780;51.034;7.120;2023-06-22T09:13:17;100647.91;;;26.41;57.54
48015;BME280;33780;51.034;7.120;2023-06-22T09:15:43;100640.28;;;26.43;57.15
48015;BME280;33780;51.034;7.120;2023-06-22T09:18:10;100631.31;;;26.48;57.11
48015;BME280;33780;51.034;7.120;2023-06-22T09:20:36;100626.19;;;26.52;57.18
48015;BME280;33780;51.034;7.120;2023-06-22T09:23:04;100630.72;;;26.58;56.68
48015;BME280;33780;51.034;7.120;2023-06-22T09:25:32;100625.34;;;26.63;56.27
48015;BME280;33780;51.034;7.120;2023-06-22T09:27:58;100619.72;;;26.69;56.01
48015;BME280;33780;51.034;7.120;2023-06-22T09:30:23;100617.91;;;26.75;56.27
48015;BME280;33780;51.034;7.120;2023-06-22T09:32:48;100617.81;;;26.82;56.45
48015;BME280;33780;51.034;7.120;2023-06-22T09:35:17;100612.16;;;26.88;55.87
48015;BME280;33780;51.034;7.120;2023-06-22T09:37:45;100600.69;;;26.91;55.84
48015;BME280;33780;51.034;7.120;2023-06-22T09:40:11;100606.31;;;26.96;56.36
48015;BME280;33780;51.034;7.120;2023-06-22T09:42:38;100592.72;;;27.01;56.28
48015;BME280;33780;51.034;7.120;2023-06-22T09:45:05;100601.88;;;27.07;55.93
48015;BME280;33780;51.034;7.120;2023-06-22T09:47:30;100597.09;;;27.14;55.99
48015;BME280;33780;51.034;7.120;2023-06-22T09:49:55;100580.72;;;27.19;54.99
48015;BME280;33780;51.034;7.120;2023-06-22T09:52:34;100580.94;;;27.29;55.15
48015;BME280;33780;51.034;7.120;2023-06-22T09:55:02;100578.03;;;27.36;55.48
48015;BME280;33780;51.034;7.120;2023-06-22T09:57:35;100588.13;;;27.47;55.23
48015;BME280;33780;51.034;7.120;2023-06-22T10:00:00;100589.38;;;27.56;55.47
48015;BME280;33780;51.034;7.120;2023-06-22T10:02:32;100590.91;;;27.64;54.68
48015;BME280;33780;51.034;7.120;2023-06-22T10:05:16;100579.72;;;27.65;53.82
48015;BME280;33780;51.034;7.120;2023-06-22T10:07:44;100591.88;;;27.69;54.40
48015;BME280;33780;51.034;7.120;2023-06-22T10:10:18;100585.28;;;27.71;53.87
48015;BME280;33780;51.034;7.120;2023-06-22T10:12:55;100590.53;;;27.72;54.20
48015;BME280;33780;51.034;7.120;2023-06-22T10:15:32;100591.88;;;27.69;54.08
48015;BME280;33780;51.034;7.120;2023-06-22T10:18:03;100596.88;;;27.61;53.38
48015;BME280;33780;51.034;7.120;2023-06-22T10:20:39;100596.72;;;27.51;53.61
48015;BME280;33780;51.034;7.120;2023-06-22T10:23:05;100603.09;;;27.39;53.36
48015;BME280;33780;51.034;7.120;2023-06-22T10:25:30;100610.06;;;27.30;54.10
48015;BME280;33780;51.034;7.120;2023-06-22T10:27:56;100618.69;;;27.22;54.00
48015;BME280;33780;51.034;7.120;2023-06-22T10:30:28;100632.00;;;27.14;54.49
48015;BME280;33780;51.034;7.120;2023-06-22T10:32:59;100637.84;;;27.05;54.70
48015;BME280;33780;51.034;7.120;2023-06-22T10:35:30;100647.53;;;26.96;55.08
48015;BME280;33780;51.034;7.120;2023-06-22T10:38:03;100650.38;;;26.90;55.96
48015;BME280;33780;51.034;7.120;2023-06-22T10:40:49;100661.75;;;26.82;56.74
48015;BME280;33780;51.034;7.120;2023-06-22T10:43:14;100661.63;;;26.76;57.48
48015;BME280;33780;51.034;7.120;2023-06-22T10:45:40;100672.13;;;26.68;59.11
48015;BME280;33780;51.034;7.120;2023-06-22T10:48:05;100664.50;;;26.58;60.31
48015;BME280;33780;51.034;7.120;2023-06-22T10:50:30;100673.31;;;26.48;61.66
48015;BME280;33780;51.034;7.120;2023-06-22T10:53:03;100685.09;;;26.37;61.89
48015;BME280;33780;51.034;7.120;2023-06-22T10:55:33;100689.50;;;26.27;62.41
48015;BME280;33780;51.034;7.120;2023-06-22T10:57:59;100692.78;;;26.17;63.42
48015;BME280;33780;51.034;7.120;2023-06-22T11:00:24;100694.22;;;26.08;63.67
48015;BME280;33780;51.034;7.120;2023-06-22T11:02:53;100689.28;;;25.98;64.99
48015;BME280;33780;51.034;7.120;2023-06-22T11:05:20;100696.19;;;25.89;65.19
48015;BME280;33780;51.034;7.120;2023-06-22T11:07:46;100694.81;;;25.80;65.24
48015;BME280;33780;51.034;7.120;2023-06-22T11:10:15;100705.06;;;25.73;66.40
48015;BME280;33780;51.034;7.120;2023-06-22T11:12:40;100720.72;;;25.66;66.61
48015;BME280;33780;51.034;7.120;2023-06-22T11:15:06;100727.13;;;25.59;66.90
48015;BME280;33780;51.034;7.120;2023-06-22T11:17:34;100742.38;;;25.55;66.65
48015;BME280;33780;51.034;7.120;2023-06-22T11:19:59;100744.72;;;25.52;66.92
48015;BME280;33780;51.034;7.120;2023-06-22T11:22:25;100741.81;;;25.47;66.81
48015;BME280;33780;51.034;7.120;2023-06-22T11:24:50;100741.69;;;25.42;67.43
48015;BME280;33780;51.034;7.120;2023-06-22T11:27:16;100713.06;;;25.38;68.48
48015;BME280;33780;51.034;7.120;2023-06-22T11:29:41;100685.72;;;25.31;68.69
48015;BME280;33780;51.034;7.120;2023-06-22T11:32:06;100659.03;;;25.26;68.90
48015;BME280;33780;51.034;7.120;2023-06-22T11:34:32;100657.34;;;25.25;68.92
48015;BME280;33780;51.034;7.120;2023-06-22T11:36:58;100639.25;;;25.24;69.60
48015;BME280;33780;51.034;7.120;2023-06-22T11:39:23;100620.91;;;25.25;70.23
48015;BME280;33780;51.034;7.120;2023-06-22T11:41:48;100640.91;;;25.25;70.14
48015;BME280;33780;51.034;7.120;2023-06-22T11:44:13;100621.28;;;25.28;70.11
48015;BME280;33780;51.034;7.120;2023-06-22T11:46:39;100597.44;;;25.29;70.75
48015;BME280;33780;51.034;7.120;2023-06-22T11:49:04;100579.09;;;25.29;70.63
48015;BME280;33780;51.034;7.120;2023-06-22T11:51:30;100563.50;;;25.30;70.54
48015;BME280;33780;51.034;7.120;2023-06-22T11:53:56;100544.97;;;25.32;71.98
48015;BME280;33780;51.034;7.120;2023-06-22T11:56:22;100525.78;;;25.32;72.71
48015;BME280;33780;51.034;7.120;2023-06-22T11:58:47;100523.50;;;25.29;71.13
48015;BME280;33780;51.034;7.120;2023-06-22T12:01:12;100532.78;;;25.28;71.34
48015;BME280;33780;51.034;7.120;2023-06-22T12:03:40;100546.00;;;25.31;71.68
48015;BME280;33780;51.034;7.120;2023-06-22T12:06:05;100544.25;;;25.37;71.58
48015;BME280;33780;51.034;7.120;2023-06-22T12:08:30;100545.81;;;25.44;72.43
48015;BME280;33780;51.034;7.120;2023-06-22T12:10:55;100565.28;;;25.54;72.06
48015;BME280;33780;51.034;7.120;2023-06-22T12:13:21;100573.94;;;25.70;72.51
48015;BME280;33780;51.034;7.120;2023-06-22T12:15:46;100568.47;;;25.81;73.07
48015;BME280;33780;51.034;7.120;2023-06-22T12:18:12;100556.09;;;25.90;72.16
48015;BME280;33780;51.034;7.120;2023-06-22T12:20:39;100545.34;;;26.01;71.40
48015;BME280;33780;51.034;7.120;2023-06-22T12:23:04;100535.38;;;26.06;71.36
48015;BME280;33780;51.034;7.120;2023-06-22T12:25:30;100532.72;;;26.11;70.88
48015;BME280;33780;51.034;7.120;2023-06-22T12:27:58;100524.84;;;26.15;70.97
48015;BME280;33780;51.034;7.120;2023-06-22T12:30:23;100513.63;;;26.16;70.48
48015;BME280;33780;51.034;7.120;2023-06-22T12:32:48;100518.78;;;26.13;70.64
48015;BME280;33780;51.034;7.120;2023-06-22T12:35:14;100513.41;;;26.06;70.42
48015;BME280;33780;51.034;7.120;2023-06-22T12:37:43;100514.75;;;26.04;70.46
48015;BME280;33780;51.034;7.120;2023-06-22T12:40:09;100506.50;;;26.04;70.77
48015;BME280;33780;51.034;7.120;2023-06-22T12:42:34;100503.03;;;26.08;70.65
48015;BME280;33780;51.034;7.120;2023-06-22T12:45:00;100493.59;;;26.16;70.72
48015;BME280;33780;51.034;7.120;2023-06-22T12:47:25;100479.28;;;26.26;70.52
48015;BME280;33780;51.034;7.120;2023-06-22T12:49:50;100474.41;;;26.39;70.54
48015;BME280;33780;51.034;7.120;2023-06-22T12:52:15;100471.03;;;26.49;70.97
48015;BME280;33780;51.034;7.120;2023-06-22T12:54:41;100474.47;;;26.56;70.48
48015;BME280;33780;51.034;7.120;2023-06-22T12:57:06;100467.28;;;26.67;70.56
48015;BME280;33780;51.034;7.120;2023-06-22T12:59:32;100468.09;;;26.79;69.85
48015;BME280;33780;51.034;7.120;2023-06-22T13:01:57;100458.53;;;26.82;69.37
48015;BME280;33780;51.034;7.120;2023-06-22T13:04:22;100452.28;;;26.86;69.16
48015;BME280;33780;51.034;7.120;2023-06-22T13:06:48;100453.31;;;26.97;69.92
48015;BME280;33780;51.034;7.120;2023-06-22T13:09:14;100444.22;;;27.08;69.52
48015;BME280;33780;51.034;7.120;2023-06-22T13:11:40;100437.25;;;27.17;69.19
48015;BME280;33780;51.034;7.120;2023-06-22T13:14:05;100437.66;;;27.26;66.96
48015;BME280;33780;51.034;7.120;2023-06-22T13:16:31;100435.84;;;27.31;66.92
48015;BME280;33780;51.034;7.120;2023-06-22T13:18:56;100427.59;;;27.31;67.12
48015;BME280;33780;51.034;7.120;2023-06-22T13:21:21;100425.50;;;27.38;67.36
48015;BME280;33780;51.034;7.120;2023-06-22T13:23:46;100427.94;;;27.35;66.30
48015;BME280;33780;51.034;7.120;2023-06-22T13:26:12;100419.44;;;27.36;64.68
48015;BME280;33780;51.034;7.120;2023-06-22T13:28:37;100420.91;;;27.44;65.65